createdAt,value
2019-02-22T00:02:42.943Z,8.18
2019-02-22T00:05:31.401Z,8.13
2019-02-22T00:08:19.559Z,8.00
2019-02-22T00:11:07.593Z,7.92
2019-02-22T00:13:55.791Z,7.89
2019-02-22T00:16:43.929Z,7.94
2019-02-22T00:19:31.687Z,7.99
2019-02-22T00:22:19.513Z,7.92
2019-02-22T00:25:07.749Z,7.88
2019-02-22T00:27:55.482Z,7.98
2019-02-22T00:30:43.719Z,7.83
2019-02-22T00:33:31.717Z,7.81
2019-02-22T00:36:20.074Z,7.70
2019-02-22T00:39:08.263Z,7.73
2019-02-22T00:41:56.633Z,7.88
2019-02-22T00:44:44.434Z,7.89
2019-02-22T00:47:31.913Z,7.91
2019-02-22T00:50:20.160Z,7.94
2019-02-22T00:53:08.170Z,8.04
2019-02-22T00:55:56.142Z,7.85
2019-02-22T00:58:44.145Z,7.82
2019-02-22T01:01:31.690Z,7.76
2019-02-22T01:04:20.102Z,7.91
2019-02-22T01:07:08.375Z,7.95
2019-02-22T01:09:56.472Z,8.19
2019-02-22T01:12:44.546Z,8.09
2019-02-22T01:15:32.420Z,8.23
2019-02-22T01:18:20.542Z,8.11
2019-02-22T01:21:08.499Z,8.18
2019-02-22T01:23:56.403Z,8.14
2019-02-22T01:26:44.248Z,8.16
2019-02-22T01:29:31.835Z,8.20
2019-02-22T01:32:19.624Z,8.27
2019-02-22T01:35:07.782Z,8.24
2019-02-22T01:37:55.871Z,8.23
2019-02-22T01:40:44.265Z,8.15
2019-02-22T01:43:33.463Z,8.10
2019-02-22T01:46:21.541Z,8.10
2019-02-22T01:49:09.814Z,8.03
2019-02-22T01:51:57.734Z,7.87
2019-02-22T01:54:45.332Z,7.81
2019-02-22T01:57:33.233Z,7.87
2019-02-22T02:00:21.344Z,7.77
2019-02-22T02:03:09.490Z,7.84
2019-02-22T02:05:57.546Z,7.81
2019-02-22T02:08:45.852Z,7.81
2019-02-22T02:11:34.147Z,7.71
2019-02-22T02:14:22.139Z,7.79
2019-02-22T02:17:10.363Z,7.65
2019-02-22T02:19:58.545Z,7.67
2019-02-22T02:22:46.902Z,7.75
2019-02-22T02:25:34.981Z,7.73
2019-02-22T02:28:22.896Z,7.67
2019-02-22T02:31:10.874Z,7.71
2019-02-22T02:33:58.747Z,7.76
2019-02-22T02:36:46.718Z,7.55
2019-02-22T02:39:34.717Z,7.65
2019-02-22T02:42:22.995Z,7.58
2019-02-22T02:45:11.038Z,7.73
2019-02-22T02:47:59.323Z,7.90
2019-02-22T02:50:47.345Z,7.89
2019-02-22T02:53:34.947Z,7.75
2019-02-22T02:56:22.877Z,7.77
2019-02-22T02:59:10.936Z,7.74
2019-02-22T03:01:59.480Z,7.63
2019-02-22T03:04:47.522Z,7.47
2019-02-22T03:07:46.398Z,7.75
2019-02-22T03:10:34.329Z,7.52
2019-02-22T03:13:22.183Z,7.47
2019-02-22T03:16:10.274Z,7.57
2019-02-22T03:18:58.236Z,7.62
2019-02-22T03:21:46.267Z,7.28
2019-02-22T03:24:34.116Z,7.36
2019-02-22T03:27:22.016Z,7.35
2019-02-22T03:30:10.240Z,7.57
2019-02-22T03:32:58.171Z,7.47
2019-02-22T03:35:46.259Z,7.47
2019-02-22T03:38:33.866Z,7.37
2019-02-22T03:41:32.459Z,7.50
2019-02-22T03:44:12.030Z,7.58
2019-02-22T03:46:59.617Z,7.59
2019-02-22T03:49:47.731Z,7.41
2019-02-22T03:52:40.642Z,7.48
2019-02-22T03:55:28.593Z,7.53
2019-02-22T03:58:16.561Z,7.51
2019-02-22T04:01:04.867Z,7.65
2019-02-22T04:03:52.839Z,7.60
2019-02-22T04:06:40.695Z,7.31
2019-02-22T04:09:28.623Z,7.37
2019-02-22T04:12:16.291Z,7.53
2019-02-22T04:15:04.596Z,7.70
2019-02-22T04:17:52.509Z,7.58
2019-02-22T04:20:40.438Z,7.53
2019-02-22T04:23:28.760Z,7.47
2019-02-22T04:26:16.820Z,7.51
2019-02-22T04:29:05.058Z,7.40
2019-02-22T04:31:52.914Z,7.67
2019-02-22T04:34:40.573Z,7.87
2019-02-22T04:37:28.592Z,7.80
2019-02-22T04:40:16.159Z,7.77
2019-02-22T04:43:04.482Z,7.60
2019-02-22T04:45:52.415Z,7.88
2019-02-22T04:48:40.222Z,8.04
2019-02-22T04:51:28.265Z,8.04
2019-02-22T04:54:16.260Z,8.14
2019-02-22T04:57:04.181Z,8.22
2019-02-22T04:59:52.132Z,8.16
2019-02-22T05:02:40.292Z,8.16
2019-02-22T05:05:28.120Z,8.16
2019-02-22T05:08:16.192Z,7.95
2019-02-22T05:11:04.457Z,8.08
2019-02-22T05:13:52.635Z,8.28
2019-02-22T05:16:40.617Z,8.30
2019-02-22T05:19:28.352Z,8.21
2019-02-22T05:22:16.247Z,8.01
2019-02-22T05:25:04.800Z,8.12
2019-02-22T05:27:52.687Z,8.08
2019-02-22T05:30:40.350Z,8.13
2019-02-22T05:33:28.383Z,7.96
2019-02-22T05:36:16.403Z,8.01
2019-02-22T05:39:18.003Z,8.08
2019-02-22T05:41:54.853Z,7.76
2019-02-22T05:44:43.093Z,7.79
2019-02-22T05:47:31.073Z,7.72
2019-02-22T05:50:19.098Z,7.78
2019-02-22T05:53:07.603Z,7.72
2019-02-22T05:55:55.532Z,7.79
2019-02-22T05:58:43.642Z,7.83
2019-02-22T06:01:31.866Z,7.72
2019-02-22T06:04:19.652Z,7.83
2019-02-22T06:07:07.668Z,7.79
2019-02-22T06:09:55.489Z,7.65
2019-02-22T06:12:43.585Z,7.72
2019-02-22T06:15:32.066Z,7.69
2019-02-22T06:18:22.812Z,7.80
2019-02-22T06:21:11.223Z,7.94
2019-02-22T06:23:59.035Z,7.95
2019-02-22T06:26:46.650Z,7.93
2019-02-22T06:29:34.295Z,7.79
2019-02-22T06:32:22.003Z,7.55
2019-02-22T06:35:10.301Z,7.62
2019-02-22T06:37:58.396Z,7.62
2019-02-22T06:40:48.101Z,7.74
2019-02-22T06:43:35.888Z,7.63
2019-02-22T06:46:23.944Z,7.69
2019-02-22T06:49:11.935Z,7.37
2019-02-22T06:52:03.704Z,7.59
2019-02-22T06:54:51.278Z,7.70
2019-02-22T06:57:43.613Z,7.74
2019-02-22T07:00:31.449Z,7.74
2019-02-22T07:03:19.557Z,7.86
2019-02-22T07:06:07.441Z,7.91
2019-02-22T07:08:55.822Z,7.97
2019-02-22T07:11:53.774Z,7.93
2019-02-22T07:14:41.752Z,8.00
2019-02-22T07:17:30.251Z,8.02
2019-02-22T07:20:18.044Z,8.10
2019-02-22T07:23:06.246Z,8.21
2019-02-22T07:25:54.089Z,8.35
2019-02-22T07:28:42.671Z,8.49
2019-02-22T07:31:30.227Z,8.59
2019-02-22T07:34:18.040Z,8.56
2019-02-22T07:37:05.579Z,8.72
2019-02-22T07:39:53.844Z,8.70
2019-02-22T07:42:41.708Z,8.71
2019-02-22T07:45:29.682Z,8.56
2019-02-22T07:48:17.521Z,8.68
2019-02-22T07:51:05.260Z,8.63
2019-02-22T07:53:53.160Z,8.68
2019-02-22T07:56:41.264Z,8.66
2019-02-22T07:59:29.208Z,8.81
2019-02-22T08:02:17.667Z,8.99
2019-02-22T08:05:05.952Z,9.17
2019-02-22T08:07:54.986Z,9.32
2019-02-22T08:10:42.622Z,9.27
2019-02-22T08:13:31.018Z,8.98
2019-02-22T08:16:18.837Z,9.14
2019-02-22T08:19:06.917Z,9.13
2019-02-22T08:21:55.202Z,9.35
2019-02-22T08:24:43.223Z,9.34
2019-02-22T08:27:31.365Z,9.58
2019-02-22T08:30:19.281Z,9.82
2019-02-22T08:33:07.227Z,9.95
2019-02-22T08:35:55.481Z,9.64
2019-02-22T08:38:43.295Z,9.94
2019-02-22T08:41:31.017Z,9.76
2019-02-22T08:44:19.022Z,10.04
2019-02-22T08:47:07.051Z,10.04
2019-02-22T08:49:55.123Z,10.10
2019-02-22T08:52:43.077Z,10.18
2019-02-22T08:55:31.128Z,10.18
2019-02-22T08:58:19.072Z,10.25
2019-02-22T09:01:07.017Z,10.28
2019-02-22T09:03:54.585Z,10.18
2019-02-22T09:06:42.411Z,9.97
2019-02-22T09:09:30.775Z,9.98
2019-02-22T09:12:18.908Z,10.03
2019-02-22T09:15:07.249Z,10.18
2019-02-22T09:17:55.405Z,10.25
2019-02-22T09:20:43.094Z,10.31
2019-02-22T09:23:31.302Z,10.42
2019-02-22T09:26:19.565Z,10.65
2019-02-22T09:29:07.714Z,10.78
2019-02-22T09:31:56.099Z,10.86
2019-02-22T09:34:46.187Z,10.80
2019-02-22T09:37:34.246Z,10.78
2019-02-22T09:40:22.406Z,10.95
2019-02-22T09:43:10.001Z,11.17
2019-02-22T09:45:58.162Z,11.39
2019-02-22T09:48:46.322Z,11.58
2019-02-22T09:51:34.447Z,11.58
2019-02-22T09:54:22.552Z,11.48
2019-02-22T09:57:10.316Z,11.71
2019-02-22T09:59:58.695Z,11.91
2019-02-22T10:02:46.609Z,11.98
2019-02-22T10:05:34.609Z,11.90
2019-02-22T10:08:22.711Z,11.95
2019-02-22T10:11:10.724Z,11.70
2019-02-22T10:14:06.237Z,11.76
2019-02-22T10:16:48.364Z,11.65
2019-02-22T10:19:36.013Z,11.68
2019-02-22T10:22:23.933Z,11.44
2019-02-22T10:25:11.848Z,11.39
2019-02-22T10:27:59.427Z,11.53
2019-02-22T10:30:47.082Z,11.67
2019-02-22T10:33:36.866Z,11.71
2019-02-22T10:36:24.919Z,11.81
2019-02-22T10:39:13.098Z,11.93
2019-02-22T10:42:01.054Z,11.98
2019-02-22T10:44:48.860Z,12.09
2019-02-22T10:47:36.717Z,11.82
2019-02-22T10:50:24.698Z,12.00
2019-02-22T10:53:12.851Z,12.21
2019-02-22T10:56:00.772Z,12.40
2019-02-22T10:58:48.921Z,12.49
2019-02-22T11:01:37.098Z,12.71
2019-02-22T11:04:25.274Z,12.65
2019-02-22T11:07:13.147Z,12.56
2019-02-22T11:10:01.087Z,12.81
2019-02-22T11:12:48.904Z,12.95
2019-02-22T11:15:36.777Z,13.25
2019-02-22T11:18:24.663Z,12.80
2019-02-22T11:21:12.584Z,13.16
2019-02-22T11:24:00.941Z,13.32
2019-02-22T11:26:48.947Z,13.43
2019-02-22T11:29:36.894Z,13.29
2019-02-22T11:32:25.078Z,13.51
2019-02-22T11:35:12.539Z,13.72
2019-02-22T11:38:00.633Z,13.79
2019-02-22T11:40:48.759Z,13.76
2019-02-22T11:43:37.175Z,13.55
2019-02-22T11:46:25.044Z,13.79
2019-02-22T11:49:13.156Z,13.82
2019-02-22T11:52:01.178Z,13.76
2019-02-22T11:54:49.262Z,13.70
2019-02-22T11:57:37.427Z,13.95
2019-02-22T12:00:26.324Z,14.16
2019-02-22T12:03:24.255Z,14.08
2019-02-22T12:06:04.029Z,13.58
2019-02-22T12:08:52.409Z,13.01
2019-02-22T12:11:40.494Z,12.64
2019-02-22T12:14:28.650Z,12.53
2019-02-22T12:22:30.892Z,12.12
2019-02-22T12:25:18.759Z,12.16
2019-02-22T12:28:06.440Z,12.34
2019-02-22T12:30:54.818Z,12.21
2019-02-22T12:43:39.979Z,13.08
2019-02-22T12:46:27.839Z,12.71
2019-02-22T12:49:15.732Z,12.74
2019-02-22T12:52:03.546Z,13.01
2019-02-22T12:54:51.894Z,12.56
2019-02-22T12:57:40.112Z,12.37
2019-02-22T13:00:28.195Z,12.16
2019-02-22T13:03:16.480Z,11.93
2019-02-22T13:06:04.512Z,11.81
2019-02-22T13:08:53.057Z,11.67
2019-02-22T13:11:40.895Z,11.52
2019-02-22T13:14:28.449Z,11.64
2019-02-22T13:17:16.289Z,11.73
2019-02-22T13:20:04.858Z,11.70
2019-02-22T13:22:52.855Z,11.74
2019-02-22T13:25:40.993Z,11.63
2019-02-22T13:28:28.956Z,11.51
2019-02-22T13:31:17.130Z,11.45
2019-02-22T13:34:05.042Z,11.35
2019-02-22T13:36:52.912Z,11.26
2019-02-22T13:39:40.500Z,11.22
2019-02-22T13:42:28.809Z,11.36
2019-02-22T13:45:26.163Z,11.41
2019-02-22T13:48:06.615Z,11.36
2019-02-22T13:50:54.503Z,11.35
2019-02-22T13:53:42.381Z,11.54
2019-02-22T13:56:30.319Z,11.55
2019-02-22T13:59:18.239Z,11.71
2019-02-22T14:02:06.146Z,11.91
2019-02-22T14:04:54.302Z,12.14
2019-02-22T14:07:50.745Z,11.79
2019-02-22T14:10:38.962Z,11.86
2019-02-22T14:13:26.990Z,11.81
2019-02-22T14:16:15.127Z,11.80
2019-02-22T14:19:03.088Z,11.95
2019-02-22T14:21:51.273Z,12.00
2019-02-22T14:24:39.040Z,12.24
2019-02-22T14:27:26.839Z,12.24
2019-02-22T14:30:15.050Z,12.52
2019-02-22T14:33:02.850Z,12.66
2019-02-22T14:35:51.101Z,12.69
2019-02-22T14:38:39.028Z,12.77
2019-02-22T14:41:27.971Z,12.94
2019-02-22T14:44:16.310Z,12.90
2019-02-22T14:47:04.423Z,12.75
2019-02-22T14:49:52.694Z,12.72
2019-02-22T14:52:40.863Z,12.19
2019-02-22T14:55:28.733Z,12.13
2019-02-22T14:58:17.079Z,12.11
2019-02-22T15:01:05.211Z,12.04
2019-02-22T15:03:53.461Z,12.04
2019-02-22T15:06:40.999Z,11.77
2019-02-22T15:09:29.123Z,11.79
2019-02-22T15:12:17.356Z,11.61
2019-02-22T15:15:06.377Z,11.64
2019-02-22T15:17:57.142Z,11.52
2019-02-22T15:20:45.546Z,11.57
2019-02-22T15:23:33.330Z,11.53
2019-02-22T15:26:21.498Z,11.49
2019-02-22T15:29:09.522Z,11.42
2019-02-22T15:31:57.417Z,11.45
2019-02-22T15:34:45.187Z,11.48
2019-02-22T15:37:33.168Z,11.57
2019-02-22T15:40:21.595Z,11.50
2019-02-22T15:43:09.972Z,11.48
2019-02-22T15:45:58.273Z,11.50
2019-02-22T15:48:47.082Z,11.48
2019-02-22T15:51:34.772Z,11.35
2019-02-22T15:54:22.896Z,11.33
2019-02-22T15:57:10.902Z,11.28
2019-02-22T15:59:58.967Z,11.44
2019-02-22T16:02:47.192Z,11.38
2019-02-22T16:05:37.567Z,11.37
2019-02-22T16:08:25.127Z,11.29
2019-02-22T16:11:12.789Z,11.19
2019-02-22T16:14:01.144Z,11.13
2019-02-22T16:16:49.065Z,11.04
2019-02-22T16:19:37.134Z,11.17
2019-02-22T16:22:25.055Z,11.13
2019-02-22T16:25:19.507Z,11.18
2019-02-22T16:28:02.883Z,11.08
2019-02-22T16:30:51.463Z,11.12
2019-02-22T16:33:40.005Z,10.89
2019-02-22T16:36:27.805Z,10.79
2019-02-22T16:39:17.265Z,10.70
2019-02-22T16:42:06.031Z,10.65
2019-02-22T16:44:54.149Z,10.63
2019-02-22T16:47:41.837Z,10.62
2019-02-22T16:50:30.849Z,10.56
2019-02-22T16:53:18.494Z,10.57
2019-02-22T16:56:06.611Z,10.54
2019-02-22T16:58:55.317Z,10.50
2019-02-22T17:01:43.663Z,10.48
2019-02-22T17:04:32.685Z,10.53
2019-02-22T17:07:20.921Z,10.24
2019-02-22T17:10:10.286Z,10.31
2019-02-22T17:12:58.430Z,10.35
2019-02-22T17:15:46.377Z,10.27
2019-02-22T17:18:34.617Z,10.25
2019-02-22T17:21:22.695Z,10.23
2019-02-22T17:24:11.266Z,10.24
2019-02-22T17:26:59.516Z,10.16
2019-02-22T17:29:47.759Z,10.08
2019-02-22T17:32:35.624Z,10.19
2019-02-22T17:35:24.146Z,10.01
2019-02-22T17:38:12.408Z,10.05
2019-02-22T17:41:01.446Z,10.00
2019-02-22T17:43:49.434Z,9.99
2019-02-22T17:46:39.999Z,9.90
2019-02-22T17:49:28.005Z,9.87
2019-02-22T17:52:17.361Z,9.76
2019-02-22T17:55:07.967Z,9.73
2019-02-22T17:57:56.007Z,9.69
2019-02-22T18:00:44.249Z,9.58
2019-02-22T18:03:33.004Z,9.59
2019-02-22T18:06:21.087Z,9.52
2019-02-22T18:09:09.393Z,9.54
2019-02-22T18:11:57.677Z,9.52
2019-02-22T18:14:45.600Z,9.50
2019-02-22T18:17:34.092Z,9.40
2019-02-22T18:20:22.660Z,9.37
2019-02-22T18:23:11.025Z,9.40
2019-02-22T18:25:59.077Z,9.30
2019-02-22T18:28:47.067Z,9.27
2019-02-22T18:31:35.122Z,9.27
2019-02-22T18:34:22.925Z,9.16
2019-02-22T18:37:10.825Z,9.15
2019-02-22T18:39:58.790Z,9.02
2019-02-22T18:42:46.870Z,9.08
2019-02-22T18:45:35.088Z,8.98
2019-02-22T18:48:24.368Z,9.00
2019-02-22T18:51:13.205Z,8.96
2019-02-22T18:54:02.407Z,8.89
2019-02-22T18:56:50.688Z,8.90
2019-02-22T18:59:38.724Z,8.79
2019-02-22T19:02:26.645Z,8.78
2019-02-22T19:05:14.267Z,8.68
2019-02-22T19:08:02.275Z,8.59
2019-02-22T19:10:50.487Z,8.54
2019-02-22T19:13:38.574Z,8.48
2019-02-22T19:16:26.640Z,8.40
2019-02-22T19:19:14.974Z,8.46
2019-02-22T19:22:03.113Z,8.48
2019-02-22T19:24:52.378Z,8.42
2019-02-22T19:27:40.229Z,8.44
2019-02-22T19:30:28.050Z,8.22
2019-02-22T19:33:16.109Z,8.30
2019-02-22T19:36:03.907Z,8.22
2019-02-22T19:38:51.890Z,8.17
2019-02-22T19:41:39.924Z,8.26
2019-02-22T19:44:28.043Z,8.16
2019-02-22T19:47:16.004Z,8.10
2019-02-22T19:50:03.868Z,8.10
2019-02-22T19:52:51.661Z,8.12
2019-02-22T19:55:40.129Z,8.14
2019-02-22T19:58:28.090Z,8.07
2019-02-22T20:01:23.798Z,8.13
2019-02-22T20:04:13.681Z,7.98
2019-02-22T20:07:04.155Z,8.10
2019-02-22T20:09:56.297Z,7.99
2019-02-22T20:12:45.137Z,7.84
2019-02-22T20:15:34.201Z,7.79
2019-02-22T20:18:22.638Z,7.72
2019-02-22T20:21:11.072Z,7.67
2019-02-22T20:23:59.169Z,7.65
2019-02-22T20:26:47.090Z,7.61
2019-02-22T20:29:35.448Z,7.66
2019-02-22T20:32:23.414Z,7.60
2019-02-22T20:35:14.342Z,7.59
2019-02-22T20:38:02.412Z,7.40
2019-02-22T20:40:50.461Z,7.38
2019-02-22T20:43:38.667Z,7.35
2019-02-22T20:46:27.009Z,7.47
2019-02-22T20:49:14.574Z,7.51
2019-02-22T20:52:02.252Z,7.46
2019-02-22T20:54:50.434Z,7.59
2019-02-22T20:57:38.332Z,7.58
2019-02-22T21:00:26.337Z,7.28
2019-02-22T21:03:16.263Z,7.46
2019-02-22T21:06:04.498Z,7.49
2019-02-22T21:08:52.699Z,7.40
2019-02-22T21:11:40.573Z,7.38
2019-02-22T21:14:30.575Z,7.40
2019-02-22T21:17:18.651Z,7.18
2019-02-22T21:20:07.884Z,7.17
2019-02-22T21:22:55.921Z,7.15
2019-02-22T21:25:44.382Z,7.14
2019-02-22T21:28:32.674Z,7.04
2019-02-22T21:31:20.935Z,7.09
2019-02-22T21:34:08.745Z,7.02
2019-02-22T21:36:57.274Z,6.90
2019-02-22T21:39:45.747Z,7.08
2019-02-22T21:42:33.993Z,7.01
2019-02-22T21:45:22.159Z,6.89
2019-02-22T21:48:10.204Z,6.80
2019-02-22T21:50:58.260Z,6.83
2019-02-22T21:53:46.505Z,6.54
2019-02-22T21:56:34.365Z,6.55
2019-02-22T21:59:22.156Z,6.69
2019-02-22T22:02:10.304Z,6.42
2019-02-22T22:04:57.926Z,6.54
2019-02-22T22:07:45.911Z,6.68
2019-02-22T22:10:33.858Z,6.49
2019-02-22T22:13:22.193Z,6.54
2019-02-22T22:16:09.837Z,6.53
2019-02-22T22:18:57.636Z,6.59
2019-02-22T22:21:45.746Z,6.43
2019-02-22T22:24:33.800Z,6.47
2019-02-22T22:27:21.570Z,6.43
2019-02-22T22:30:10.486Z,6.47
2019-02-22T22:32:58.542Z,6.44
2019-02-22T22:35:46.519Z,6.39
2019-02-22T22:38:34.487Z,6.27
2019-02-22T22:41:22.445Z,6.27
2019-02-22T22:44:10.293Z,6.25
2019-02-22T22:46:58.526Z,6.13
2019-02-22T22:49:46.416Z,6.09
2019-02-22T22:52:34.536Z,6.20
2019-02-22T22:55:22.424Z,6.15
2019-02-22T22:58:10.251Z,6.13
2019-02-22T23:01:08.898Z,6.10
2019-02-22T23:03:57.209Z,6.04
2019-02-22T23:06:45.191Z,5.90
2019-02-22T23:09:33.140Z,5.80
2019-02-22T23:12:21.125Z,5.91
2019-02-22T23:15:09.063Z,5.87
2019-02-22T23:17:57.134Z,5.86
2019-02-22T23:20:45.011Z,5.85
2019-02-22T23:23:32.958Z,5.62
2019-02-22T23:26:20.999Z,5.46
2019-02-22T23:29:09.119Z,5.60
2019-02-22T23:31:57.102Z,5.63
2019-02-22T23:34:45.359Z,5.55
2019-02-22T23:37:33.140Z,5.45
2019-02-22T23:40:21.787Z,5.59
2019-02-22T23:43:09.980Z,5.63
2019-02-22T23:45:57.924Z,5.53
2019-02-22T23:48:46.149Z,5.51
2019-02-22T23:51:34.176Z,5.38
2019-02-22T23:54:22.363Z,5.26
2019-02-22T23:57:10.694Z,5.36
2019-02-22T23:59:58.300Z,5.38
